createdAt,value
2023-01-01T00:01:40.537Z,50.17
2023-01-01T00:04:09.544Z,50.16
2023-01-01T00:06:36.217Z,50.96
2023-01-01T00:09:21.569Z,50.37
2023-01-01T00:11:48.232Z,50.34
2023-01-01T00:14:14.851Z,49.94
2023-01-01T00:16:41.650Z,50.20
2023-01-01T00:19:08.625Z,50.32
2023-01-01T00:21:35.212Z,50.61
2023-01-01T00:24:01.878Z,50.26
2023-01-01T00:26:34.461Z,50.26
2023-01-01T00:29:02.047Z,49.85
2023-01-01T00:31:28.863Z,50.21
2023-01-01T00:33:56.179Z,50.33
2023-01-01T00:36:24.003Z,50.21
2023-01-01T00:38:50.552Z,50.18
2023-01-01T00:41:17.265Z,50.12
2023-01-01T00:43:44.034Z,50.00
2023-01-01T00:46:10.796Z,49.97
2023-01-01T00:48:37.551Z,50.21
2023-01-01T00:51:04.615Z,50.18
2023-01-01T00:53:31.277Z,50.06
2023-01-01T00:55:57.874Z,50.15
2023-01-01T00:58:24.995Z,49.99
2023-01-01T01:00:52.553Z,49.99
2023-01-01T01:03:28.198Z,50.04
2023-01-01T01:05:59.314Z,50.01
2023-01-01T01:08:30.653Z,50.17
2023-01-01T01:11:16.906Z,50.02
2023-01-01T01:13:44.449Z,50.01
2023-01-01T01:16:12.820Z,50.00
2023-01-01T01:18:39.553Z,50.21
2023-01-01T01:21:06.193Z,49.99
2023-01-01T01:23:32.892Z,50.18
2023-01-01T01:26:21.926Z,49.87
2023-01-01T01:28:50.063Z,50.00
2023-01-01T01:31:20.243Z,49.91
2023-01-01T01:33:47.093Z,49.82
2023-01-01T01:36:13.909Z,49.96
2023-01-01T01:38:40.610Z,50.02
2023-01-01T01:41:07.181Z,49.86
2023-01-01T01:43:33.597Z,49.90
2023-01-01T01:46:24.323Z,50.02
2023-01-01T01:48:51.683Z,49.94
2023-01-01T01:51:25.149Z,49.92
2023-01-01T01:53:53.955Z,49.97
2023-01-01T01:56:24.219Z,50.20
2023-01-01T01:58:50.750Z,50.35
2023-01-01T02:01:17.531Z,49.90
2023-01-01T02:03:48.116Z,49.90
2023-01-01T02:06:14.674Z,49.96
2023-01-01T02:08:41.280Z,49.96
2023-01-01T02:11:07.799Z,49.97
2023-01-01T02:13:34.338Z,49.74
2023-01-01T02:16:12.444Z,49.75
2023-01-01T02:18:46.958Z,49.98
2023-01-01T02:21:25.220Z,49.84
2023-01-01T02:24:07.010Z,49.78
2023-01-01T02:27:07.816Z,49.70
2023-01-01T02:29:37.261Z,49.97
2023-01-01T02:32:10.271Z,49.45
2023-01-01T02:35:22.521Z,49.93
2023-01-01T02:37:49.215Z,49.79
2023-01-01T02:40:15.747Z,49.57
2023-01-01T02:42:42.360Z,49.88
2023-01-01T02:45:09.571Z,49.74
2023-01-01T02:47:36.145Z,49.72
2023-01-01T02:50:10.964Z,49.87
2023-01-01T02:52:59.327Z,49.79
2023-01-01T02:55:44.159Z,49.74
2023-01-01T02:58:37.161Z,49.68
2023-01-01T03:01:17.243Z,49.92
2023-01-01T03:04:23.016Z,49.82
2023-01-01T03:06:56.323Z,49.88
2023-01-01T03:09:32.907Z,49.85
2023-01-01T03:12:21.227Z,49.92
2023-01-01T03:14:56.930Z,49.76
2023-01-01T03:17:45.654Z,49.80
2023-01-01T03:20:15.837Z,49.83
2023-01-01T03:25:09.631Z,49.81
2023-01-01T03:27:45.948Z,49.78
2023-01-01T03:30:13.238Z,49.76
2023-01-01T03:33:00.636Z,49.66
2023-01-01T03:35:37.408Z,50.18
2023-01-01T03:38:05.518Z,49.87
2023-01-01T03:40:32.106Z,49.58
2023-01-01T03:43:35.513Z,49.67
2023-01-01T03:46:02.162Z,49.59
2023-01-01T03:48:28.676Z,50.15
2023-01-01T03:51:18.027Z,49.64
2023-01-01T03:53:44.610Z,49.84
2023-01-01T03:56:16.456Z,49.64
2023-01-01T03:58:49.834Z,49.63
2023-01-01T04:01:43.763Z,49.59
2023-01-01T04:04:10.343Z,49.29
2023-01-01T04:06:36.931Z,49.96
2023-01-01T04:09:03.768Z,49.93
2023-01-01T04:11:50.061Z,49.69
2023-01-01T04:14:33.449Z,49.83
2023-01-01T04:17:00.384Z,49.76
2023-01-01T04:19:27.151Z,49.62
2023-01-01T04:21:53.717Z,49.79
2023-01-01T04:24:20.401Z,49.40
2023-01-01T04:26:47.138Z,49.75
2023-01-01T04:29:13.860Z,49.73
2023-01-01T04:31:40.418Z,49.70
2023-01-01T04:34:07.042Z,49.43
2023-01-01T04:36:33.919Z,49.77
2023-01-01T04:39:00.597Z,49.98
2023-01-01T04:41:27.181Z,49.83
2023-01-01T04:43:53.860Z,49.57
2023-01-01T04:46:20.801Z,50.14
2023-01-01T04:48:47.345Z,49.97
2023-01-01T04:51:14.533Z,50.08
2023-01-01T04:53:41.037Z,50.08
2023-01-01T04:56:09.038Z,50.05
2023-01-01T04:58:36.013Z,50.01
2023-01-01T05:01:02.663Z,50.14
2023-01-01T05:03:29.295Z,50.17
2023-01-01T05:06:02.651Z,50.22
2023-01-01T05:08:32.913Z,50.12
2023-01-01T05:11:02.374Z,50.40
2023-01-01T05:13:28.965Z,50.28
2023-01-01T05:15:55.607Z,50.32
2023-01-01T05:18:22.282Z,50.30
2023-01-01T05:20:48.874Z,50.57
2023-01-01T05:23:17.250Z,50.16
2023-01-01T05:25:44.095Z,50.51
2023-01-01T05:28:10.728Z,50.32
2023-01-01T05:30:40.739Z,50.31
2023-01-01T05:33:07.369Z,50.30
2023-01-01T05:35:33.960Z,50.50
2023-01-01T05:38:00.480Z,50.30
2023-01-01T05:40:27.048Z,49.95
2023-01-01T05:42:53.639Z,50.08
2023-01-01T05:45:20.190Z,50.33
2023-01-01T05:47:46.777Z,50.19
2023-01-01T05:52:38.793Z,50.28
2023-01-01T05:55:05.683Z,50.42
2023-01-01T05:57:32.264Z,50.30
2023-01-01T05:59:58.905Z,50.58
2023-01-01T06:02:25.544Z,50.07
2023-01-01T06:04:52.231Z,50.68
2023-01-01T06:07:19.029Z,50.44
2023-01-01T06:09:45.545Z,50.53
2023-01-01T06:12:12.133Z,50.47
2023-01-01T06:14:38.682Z,50.42
2023-01-01T06:17:05.346Z,50.44
2023-01-01T06:19:31.862Z,50.21
2023-01-01T06:21:58.414Z,50.66
2023-01-01T06:24:24.966Z,50.27
2023-01-01T06:26:51.536Z,50.59
2023-01-01T06:29:18.051Z,50.47
2023-01-01T06:31:44.607Z,50.40
2023-01-01T06:34:11.101Z,50.67
2023-01-01T06:36:37.633Z,50.53
2023-01-01T06:39:04.319Z,50.51
2023-01-01T06:41:30.978Z,50.66
2023-01-01T06:43:58.210Z,50.55
2023-01-01T06:46:29.422Z,50.50
2023-01-01T06:48:58.089Z,50.40
2023-01-01T06:51:26.952Z,50.48
2023-01-01T06:53:53.808Z,50.24
2023-01-01T06:56:20.397Z,50.36
2023-01-01T06:58:46.934Z,50.25
2023-01-01T07:01:17.505Z,50.43
2023-01-01T07:03:44.405Z,50.30
2023-01-01T07:06:11.206Z,50.39
2023-01-01T07:08:37.897Z,50.39
2023-01-01T07:11:04.579Z,50.29
2023-01-01T07:13:31.420Z,50.44
2023-01-01T07:15:58.062Z,50.48
2023-01-01T07:18:24.876Z,50.56
2023-01-01T07:21:04.374Z,50.47
2023-01-01T07:23:32.578Z,50.50
2023-01-01T07:25:59.249Z,50.23
2023-01-01T07:28:26.071Z,50.53
2023-01-01T07:30:53.831Z,50.58
2023-01-01T07:33:22.191Z,50.57
2023-01-01T07:35:48.914Z,50.59
2023-01-01T07:38:15.617Z,50.69
2023-01-01T07:40:42.238Z,50.55
2023-01-01T07:43:08.849Z,50.35
2023-01-01T07:45:35.389Z,50.52
2023-01-01T07:48:02.018Z,50.43
2023-01-01T07:50:30.335Z,50.48
2023-01-01T07:52:56.976Z,50.48
2023-01-01T07:55:23.516Z,50.47
2023-01-01T07:57:50.036Z,50.42
2023-01-01T08:00:18.250Z,50.57
2023-01-01T08:02:44.929Z,50.41
2023-01-01T08:05:11.635Z,50.44
2023-01-01T08:07:38.323Z,50.38
2023-01-01T08:10:05.605Z,50.44
2023-01-01T08:12:32.252Z,50.48
2023-01-01T08:14:58.847Z,50.61
2023-01-01T08:17:25.431Z,50.49
2023-01-01T08:19:52.649Z,50.34
2023-01-01T08:22:19.257Z,50.51
2023-01-01T08:24:45.778Z,50.68
2023-01-01T08:27:15.822Z,50.69
2023-01-01T08:29:45.556Z,50.71
2023-01-01T08:32:12.915Z,50.53
2023-01-01T08:34:39.425Z,50.25
2023-01-01T08:37:06.448Z,50.51
2023-01-01T08:39:32.969Z,50.40
2023-01-01T08:41:59.567Z,50.45
2023-01-01T08:44:26.150Z,50.66
2023-01-01T08:46:52.840Z,50.42
2023-01-01T08:49:19.406Z,50.71
2023-01-01T08:51:45.926Z,50.17
2023-01-01T08:54:12.506Z,50.33
2023-01-01T08:56:39.145Z,50.21
2023-01-01T08:59:06.125Z,51.03
2023-01-01T09:01:32.795Z,50.71
2023-01-01T09:03:59.454Z,50.53
2023-01-01T09:06:26.012Z,50.46
2023-01-01T09:08:52.615Z,50.54
2023-01-01T09:11:23.236Z,50.63
2023-01-01T09:13:49.816Z,50.14
2023-01-01T09:16:16.481Z,50.44
2023-01-01T09:18:43.100Z,50.34
2023-01-01T09:21:09.685Z,50.78
2023-01-01T09:23:36.250Z,50.73
2023-01-01T09:26:04.866Z,50.44
2023-01-01T09:28:31.483Z,50.47
2023-01-01T09:30:58.046Z,50.16
2023-01-01T09:33:24.651Z,50.44
2023-01-01T09:35:51.183Z,50.26
2023-01-01T09:38:17.706Z,50.12
2023-01-01T09:40:51.794Z,50.50
2023-01-01T09:43:36.779Z,50.54
2023-01-01T09:46:06.505Z,50.47
2023-01-01T09:48:34.054Z,50.51
2023-01-01T09:51:00.727Z,50.68
2023-01-01T09:53:49.223Z,51.24
2023-01-01T09:56:19.177Z,50.54
2023-01-01T09:58:45.688Z,50.02
2023-01-01T10:01:39.802Z,50.59
2023-01-01T10:04:24.937Z,50.45
2023-01-01T10:07:12.641Z,50.06
2023-01-01T10:10:03.805Z,50.57
2023-01-01T10:12:50.591Z,50.44
2023-01-01T10:15:26.010Z,50.61
2023-01-01T10:17:54.954Z,50.75
2023-01-01T10:20:25.488Z,50.33
2023-01-01T10:22:57.766Z,50.46
2023-01-01T10:25:28.388Z,50.45
2023-01-01T10:28:10.057Z,50.35
2023-01-01T10:30:36.616Z,50.68
2023-01-01T10:33:05.714Z,50.60
2023-01-01T10:35:40.079Z,50.55
2023-01-01T10:38:06.753Z,50.47
2023-01-01T10:40:33.437Z,50.29
2023-01-01T10:43:00.822Z,50.38
2023-01-01T10:45:36.526Z,50.58
2023-01-01T10:48:20.114Z,50.19
2023-01-01T10:50:53.629Z,50.35
2023-01-01T10:53:43.087Z,50.61
2023-01-01T10:56:14.200Z,50.47
2023-01-01T10:58:54.900Z,50.75
2023-01-01T11:01:29.361Z,50.26
2023-01-01T11:03:58.316Z,50.50
2023-01-01T11:06:26.765Z,50.53
2023-01-01T11:08:55.138Z,50.49
2023-01-01T11:11:25.797Z,50.33
2023-01-01T11:13:52.761Z,50.37
2023-01-01T11:16:19.410Z,50.38
2023-01-01T11:18:45.950Z,50.61
2023-01-01T11:21:12.533Z,50.50
2023-01-01T11:23:39.647Z,50.23
2023-01-01T11:26:09.033Z,50.42
2023-01-01T11:28:35.659Z,50.37
2023-01-01T11:31:05.440Z,50.28
2023-01-01T11:33:34.414Z,50.29
2023-01-01T11:36:01.143Z,50.56
2023-01-01T11:38:30.441Z,50.23
2023-01-01T11:41:02.499Z,50.17
2023-01-01T11:43:29.109Z,50.38
2023-01-01T11:45:55.767Z,50.48
2023-01-01T11:48:26.827Z,50.35
2023-01-01T11:51:01.846Z,50.18
2023-01-01T11:53:32.939Z,50.42
2023-01-01T11:56:02.542Z,50.40
2023-01-01T11:58:44.069Z,50.50
2023-01-01T12:01:14.800Z,50.20
2023-01-01T12:03:50.296Z,50.29
2023-01-01T12:06:20.809Z,50.41
2023-01-01T12:08:54.741Z,50.40
2023-01-01T12:12:05.366Z,50.38
2023-01-01T12:15:03.601Z,50.31
2023-01-01T12:17:41.379Z,50.25
2023-01-01T12:20:26.085Z,50.38
2023-01-01T12:22:55.449Z,50.64
2023-01-01T12:25:22.123Z,50.48
2023-01-01T12:28:26.752Z,50.47
2023-01-01T12:30:57.150Z,50.20
2023-01-01T12:33:42.470Z,50.39
2023-01-01T12:36:21.113Z,50.41
2023-01-01T12:39:28.646Z,50.32
2023-01-01T12:42:19.142Z,50.38
2023-01-01T12:44:57.753Z,50.27
2023-01-01T12:47:30.043Z,50.32
2023-01-01T12:49:56.458Z,50.27
2023-01-01T12:52:46.418Z,50.40
2023-01-01T12:55:37.411Z,50.45
2023-01-01T12:58:36.778Z,50.44
2023-01-01T13:01:12.001Z,50.61
2023-01-01T13:03:55.732Z,50.33
2023-01-01T13:06:41.209Z,50.22
2023-01-01T13:09:11.948Z,50.57
2023-01-01T13:11:44.539Z,50.40
2023-01-01T13:14:11.644Z,50.57
2023-01-01T13:16:39.461Z,50.40
2023-01-01T13:19:06.224Z,50.27
2023-01-01T13:21:32.845Z,50.44
2023-01-01T13:24:16.676Z,50.19
2023-01-01T13:26:43.397Z,50.29
2023-01-01T13:29:12.947Z,50.53
2023-01-01T13:31:39.883Z,50.53
2023-01-01T13:34:38.781Z,50.28
2023-01-01T13:37:11.776Z,50.49
2023-01-01T13:39:56.357Z,50.33
2023-01-01T13:42:52.563Z,50.29
2023-01-01T13:46:14.602Z,50.32
2023-01-01T13:48:49.286Z,50.27
2023-01-01T13:52:04.663Z,50.37
2023-01-01T13:54:27.083Z,50.32
2023-01-01T13:56:58.833Z,50.19
2023-01-01T13:59:43.798Z,50.23
2023-01-01T14:02:22.538Z,50.23
2023-01-01T14:05:06.637Z,50.32
2023-01-01T14:07:53.200Z,50.37
2023-01-01T14:10:19.954Z,50.33
2023-01-01T14:12:46.918Z,50.13
2023-01-01T14:15:37.535Z,50.31
2023-01-01T14:18:13.243Z,50.16
2023-01-01T14:20:49.541Z,50.29
2023-01-01T14:23:20.364Z,50.37
2023-01-01T14:25:46.907Z,50.35
2023-01-01T14:28:20.324Z,50.23
2023-01-01T14:30:46.996Z,50.46
2023-01-01T14:33:24.196Z,50.33
2023-01-01T14:35:57.911Z,50.21
2023-01-01T14:38:28.293Z,50.29
2023-01-01T14:41:27.370Z,50.35
2023-01-01T14:43:55.352Z,50.13
2023-01-01T14:46:25.768Z,50.49
2023-01-01T14:48:57.919Z,50.38
2023-01-01T14:51:29.539Z,50.44
2023-01-01T14:53:58.241Z,50.50
2023-01-01T14:56:31.537Z,50.32
2023-01-01T14:59:12.317Z,50.20
2023-01-01T15:01:41.056Z,50.23
2023-01-01T15:04:23.686Z,50.44
2023-01-01T15:06:57.376Z,50.27
2023-01-01T15:09:24.216Z,50.28
2023-01-01T15:11:54.760Z,50.55
2023-01-01T15:14:37.069Z,50.06
2023-01-01T15:17:07.962Z,50.73
2023-01-01T15:19:35.557Z,50.21
2023-01-01T15:22:07.729Z,50.41
2023-01-01T15:24:34.398Z,50.39
2023-01-01T15:27:01.469Z,50.37
2023-01-01T15:29:41.313Z,50.22
2023-01-01T15:32:12.692Z,50.35
2023-01-01T15:34:42.058Z,50.23
2023-01-01T15:37:14.689Z,50.27
2023-01-01T15:39:45.759Z,50.28
2023-01-01T15:42:31.362Z,50.29
2023-01-01T15:45:13.982Z,50.25
2023-01-01T15:47:40.624Z,50.39
2023-01-01T15:50:27.294Z,50.46
2023-01-01T15:53:01.666Z,50.67
2023-01-01T15:55:30.498Z,50.39
2023-01-01T15:57:57.141Z,50.46
2023-01-01T16:00:29.243Z,50.34
2023-01-01T16:03:00.916Z,50.49
2023-01-01T16:05:27.658Z,50.29
2023-01-01T16:08:12.485Z,50.39
2023-01-01T16:10:39.057Z,50.17
2023-01-01T16:13:05.595Z,50.28
2023-01-01T16:15:32.188Z,51.03
2023-01-01T16:17:58.703Z,49.78
2023-01-01T16:20:26.258Z,50.22
2023-01-01T16:22:52.943Z,50.38
2023-01-01T16:25:21.153Z,50.22
2023-01-01T16:27:48.003Z,50.49
2023-01-01T16:30:15.027Z,50.33
2023-01-01T16:32:41.819Z,50.18
2023-01-01T16:35:12.293Z,50.51
2023-01-01T16:37:38.970Z,50.28
2023-01-01T16:40:06.472Z,50.39
2023-01-01T16:42:32.995Z,50.51
2023-01-01T16:44:59.640Z,50.19
2023-01-01T16:47:26.270Z,50.23
2023-01-01T16:49:52.864Z,50.43
2023-01-01T16:52:19.573Z,50.41
2023-01-01T16:54:46.170Z,50.29
2023-01-01T16:57:12.867Z,50.98
2023-01-01T16:59:39.529Z,50.40
2023-01-01T17:02:06.413Z,50.38
2023-01-01T17:04:35.278Z,50.57
2023-01-01T17:07:01.793Z,50.11
2023-01-01T17:09:28.489Z,50.44
2023-01-01T17:11:55.122Z,50.73
2023-01-01T17:14:21.795Z,50.49
2023-01-01T17:16:48.470Z,50.08
2023-01-01T17:19:16.600Z,50.09
2023-01-01T17:21:44.625Z,50.35
2023-01-01T17:24:11.240Z,50.49
2023-01-01T17:26:37.901Z,50.37
2023-01-01T17:29:06.781Z,50.69
2023-01-01T17:31:33.370Z,50.52
2023-01-01T17:34:00.032Z,50.43
2023-01-01T17:36:29.505Z,50.70
2023-01-01T17:38:56.215Z,50.27
2023-01-01T17:41:23.020Z,50.18
2023-01-01T17:43:50.705Z,50.33
2023-01-01T17:46:19.211Z,50.41
2023-01-01T17:48:45.986Z,50.29
2023-01-01T17:51:12.847Z,50.35
2023-01-01T17:53:40.009Z,50.50
2023-01-01T17:56:07.233Z,50.37
2023-01-01T17:58:35.680Z,50.50
2023-01-01T18:01:21.344Z,50.55
2023-01-01T18:03:48.604Z,50.44
2023-01-01T18:06:15.117Z,50.52
2023-01-01T18:08:41.655Z,50.31
2023-01-01T18:11:08.226Z,50.33
2023-01-01T18:13:35.371Z,50.29
2023-01-01T18:16:02.659Z,50.38
2023-01-01T18:18:30.972Z,50.59
2023-01-01T18:21:02.704Z,50.18
2023-01-01T18:23:36.393Z,50.45
2023-01-01T18:26:03.595Z,50.74
2023-01-01T18:28:30.275Z,50.50
2023-01-01T18:31:03.534Z,50.45
2023-01-01T18:33:30.167Z,50.52
2023-01-01T18:35:57.551Z,50.28
2023-01-01T18:38:24.565Z,50.44
2023-01-01T18:41:01.244Z,50.37
2023-01-01T18:43:27.758Z,50.46
2023-01-01T18:45:55.579Z,50.25
2023-01-01T18:48:22.227Z,50.53
2023-01-01T18:50:48.908Z,50.43
2023-01-01T18:53:19.889Z,50.37
2023-01-01T18:55:47.210Z,50.49
2023-01-01T18:58:24.044Z,50.52
2023-01-01T19:00:51.231Z,50.49
2023-01-01T19:03:19.409Z,50.46
2023-01-01T19:05:47.696Z,50.54
2023-01-01T19:08:17.796Z,50.51
2023-01-01T19:10:54.839Z,50.46
2023-01-01T19:13:24.268Z,50.45
2023-01-01T19:15:54.615Z,50.64
2023-01-01T19:18:22.743Z,50.45
2023-01-01T19:20:50.961Z,50.53
2023-01-01T19:23:19.874Z,50.75
2023-01-01T19:25:46.489Z,50.69
2023-01-01T19:28:15.855Z,50.64
2023-01-01T19:30:43.223Z,50.59
2023-01-01T19:33:09.744Z,50.38
2023-01-01T19:35:36.360Z,50.53
2023-01-01T19:38:03.026Z,50.68
2023-01-01T19:40:32.300Z,50.50
2023-01-01T19:42:58.798Z,50.08
2023-01-01T19:45:25.616Z,50.74
2023-01-01T19:47:52.151Z,50.45
2023-01-01T19:50:21.191Z,50.39
2023-01-01T19:52:48.296Z,50.20
2023-01-01T19:55:14.974Z,50.60
2023-01-01T19:57:41.554Z,50.26
2023-01-01T20:00:08.743Z,50.48
2023-01-01T20:02:45.819Z,50.63
2023-01-01T20:05:13.015Z,50.63
2023-01-01T20:07:39.636Z,50.60
2023-01-01T20:10:06.507Z,50.47
2023-01-01T20:12:33.064Z,50.15
2023-01-01T20:14:59.760Z,50.51
2023-01-01T20:17:26.371Z,50.38
2023-01-01T20:19:54.740Z,50.66
2023-01-01T20:22:22.072Z,50.60
2023-01-01T20:24:48.825Z,50.04
2023-01-01T20:27:17.708Z,50.47
2023-01-01T20:29:44.522Z,50.54
2023-01-01T20:32:13.017Z,50.58
2023-01-01T20:34:40.152Z,50.63
2023-01-01T20:37:45.183Z,50.51
2023-01-01T20:40:12.134Z,50.47
2023-01-01T20:42:38.751Z,50.10
2023-01-01T20:45:06.068Z,50.56
2023-01-01T20:47:32.775Z,50.63
2023-01-01T20:49:59.383Z,50.55
2023-01-01T20:52:26.079Z,50.56
2023-01-01T20:54:52.735Z,50.53
2023-01-01T20:57:19.295Z,50.69
2023-01-01T20:59:45.873Z,50.48
2023-01-01T21:02:12.622Z,50.48
2023-01-01T21:04:40.300Z,50.36
2023-01-01T21:07:08.636Z,50.50
2023-01-01T21:09:35.274Z,50.32
2023-01-01T21:12:02.120Z,50.22
2023-01-01T21:14:28.787Z,50.63
2023-01-01T21:16:55.410Z,50.02
2023-01-01T21:19:26.660Z,50.58
2023-01-01T21:21:55.554Z,50.46
2023-01-01T21:24:29.419Z,50.46
2023-01-01T21:27:00.512Z,50.60
2023-01-01T21:29:27.810Z,50.48
2023-01-01T21:31:57.597Z,50.53
2023-01-01T21:34:40.119Z,50.60
2023-01-01T21:37:47.906Z,50.56
2023-01-01T21:40:48.642Z,50.61
2023-01-01T21:43:21.318Z,50.45
2023-01-01T21:45:48.565Z,50.48
2023-01-01T21:48:29.383Z,50.58
2023-01-01T21:50:56.024Z,50.55
2023-01-01T21:53:33.084Z,50.43
2023-01-01T21:56:04.872Z,50.39
2023-01-01T21:58:52.298Z,50.57
2023-01-01T22:01:26.865Z,50.64
2023-01-01T22:04:02.528Z,50.47
2023-01-01T22:06:36.051Z,50.55
2023-01-01T22:09:02.717Z,50.37
2023-01-01T22:11:29.254Z,50.28
2023-01-01T22:13:55.899Z,50.51
2023-01-01T22:16:27.943Z,50.49
2023-01-01T22:18:54.569Z,50.50
2023-01-01T22:21:21.283Z,50.49
2023-01-01T22:23:47.853Z,50.69
2023-01-01T22:26:23.345Z,50.49
2023-01-01T22:28:51.648Z,50.62
2023-01-01T22:31:22.411Z,50.41
2023-01-01T22:33:49.307Z,50.41
2023-01-01T22:36:17.177Z,50.59
2023-01-01T22:38:43.848Z,50.51
2023-01-01T22:41:10.465Z,50.90
2023-01-01T22:43:38.840Z,50.36
2023-01-01T22:46:11.510Z,50.41
2023-01-01T22:48:38.388Z,50.45
2023-01-01T22:51:10.778Z,50.51
2023-01-01T22:53:37.367Z,50.55
2023-01-01T22:56:03.995Z,50.44
2023-01-01T22:58:30.555Z,50.60
2023-01-01T23:00:57.131Z,50.34
2023-01-01T23:03:23.717Z,50.74
2023-01-01T23:05:50.279Z,50.41
2023-01-01T23:08:16.871Z,50.60
2023-01-01T23:10:43.514Z,50.39
2023-01-01T23:13:28.826Z,50.10
2023-01-01T23:16:02.365Z,50.42
2023-01-01T23:18:30.512Z,50.33
2023-01-01T23:20:57.269Z,50.49
2023-01-01T23:23:23.796Z,50.27
2023-01-01T23:25:50.428Z,50.33
2023-01-01T23:28:16.938Z,50.93
2023-01-01T23:30:43.767Z,50.37
2023-01-01T23:33:10.392Z,50.25
2023-01-01T23:35:37.155Z,50.51
2023-01-01T23:38:03.798Z,50.42
2023-01-01T23:40:30.333Z,50.48
2023-01-01T23:42:56.892Z,50.48
2023-01-01T23:45:23.447Z,50.69
2023-01-01T23:47:50.078Z,50.39
2023-01-01T23:50:16.730Z,50.43
2023-01-01T23:52:43.264Z,50.07
2023-01-01T23:55:09.852Z,50.53
2023-01-01T23:57:36.461Z,50.44
